Terminal Aerodrome Forecast
Issued by NWS Rapid City, SD

Home | Current Version | Previous Version | Graphics & Text | Print | Product List | Glossary On
Versions: 1 2 3 4 5 6 7 8 9 10 11 12 13 14 15 16 17 18 19 20 21
908
FTUS43 KUNR 141836 AAA
TAFRAP
TAF AMD
KRAP 141836Z 1419/1518 33025G35KT P6SM -SHSN SCT025 BKN040
      TEMPO 1419/1420 5SM -SHSN
     FM142100 34020G30KT P6SM SCT100
     FM150300 VRB05KT P6SM SCT150=

USA.gov is the U.S. government's official web portal to all federal, state and local government web resources and services.